createdAt,value
2023-05-24T00:00:53.436Z,49.00
2023-05-24T00:02:55.555Z,48.92
2023-05-24T00:05:01.293Z,49.18
2023-05-24T00:07:03.679Z,48.60
2023-05-24T00:09:05.722Z,48.77
2023-05-24T00:11:07.734Z,48.70
2023-05-24T00:13:09.647Z,49.13
2023-05-24T00:15:11.756Z,49.01
2023-05-24T00:17:14.232Z,48.98
2023-05-24T00:19:18.849Z,48.86
2023-05-24T00:21:21.128Z,49.04
2023-05-24T00:23:23.011Z,49.06
2023-05-24T00:25:25.079Z,49.01
2023-05-24T00:27:26.958Z,48.31
2023-05-24T00:29:30.796Z,48.41
2023-05-24T00:31:34.333Z,48.21
2023-05-24T00:33:36.219Z,47.83
2023-05-24T00:35:38.538Z,47.94
2023-05-24T00:37:45.211Z,47.88
2023-05-24T00:39:47.890Z,46.96
2023-05-24T00:41:49.912Z,46.72
2023-05-24T00:43:51.832Z,46.74
2023-05-24T00:46:14.700Z,47.20
2023-05-24T00:48:16.659Z,47.09
2023-05-24T00:50:20.815Z,47.59
2023-05-24T00:52:23.236Z,47.50
2023-05-24T00:54:27.086Z,47.39
2023-05-24T00:56:29.419Z,47.29
2023-05-24T00:58:32.811Z,47.31
2023-05-24T01:00:34.733Z,47.36
2023-05-24T01:02:38.060Z,47.35
2023-05-24T01:04:40.001Z,46.72
2023-05-24T01:07:00.828Z,47.36
2023-05-24T01:09:06.820Z,47.15
2023-05-24T01:11:26.660Z,47.18
2023-05-24T01:13:42.597Z,47.32
2023-05-24T01:16:00.299Z,47.40
2023-05-24T01:18:08.139Z,46.97
2023-05-24T01:20:13.805Z,47.02
2023-05-24T01:22:25.651Z,46.78
2023-05-24T01:24:42.520Z,46.41
2023-05-24T01:27:03.974Z,46.54
2023-05-24T01:29:06.773Z,46.40
2023-05-24T01:31:09.693Z,47.05
2023-05-24T01:33:12.271Z,46.99
2023-05-24T01:35:14.204Z,46.90
2023-05-24T01:37:16.697Z,47.13
2023-05-24T01:39:19.678Z,47.23
2023-05-24T01:41:26.866Z,47.17
2023-05-24T01:43:35.071Z,47.55
2023-05-24T01:45:56.900Z,48.13
2023-05-24T01:48:18.930Z,48.32
2023-05-24T01:50:29.063Z,48.25
2023-05-24T01:52:33.970Z,48.26
2023-05-24T01:54:39.047Z,48.47
2023-05-24T01:56:43.689Z,48.35
2023-05-24T01:58:47.735Z,48.62
2023-05-24T02:00:51.034Z,48.68
2023-05-24T02:02:53.363Z,49.14
2023-05-24T02:04:56.572Z,49.20
2023-05-24T02:06:58.458Z,49.19
2023-05-24T02:09:00.287Z,48.88
2023-05-24T02:11:02.808Z,49.20
2023-05-24T02:13:04.800Z,49.46
2023-05-24T02:15:07.680Z,49.28
2023-05-24T02:17:09.595Z,49.50
2023-05-24T02:19:11.474Z,49.91
2023-05-24T02:21:13.395Z,50.21
2023-05-24T02:23:15.193Z,49.79
2023-05-24T02:25:17.045Z,50.43
2023-05-24T02:27:19.034Z,50.44
2023-05-24T02:29:21.808Z,50.40
2023-05-24T02:31:23.685Z,50.83
2023-05-24T02:33:25.829Z,51.14
2023-05-24T02:35:27.675Z,51.55
2023-05-24T02:37:29.601Z,51.19
2023-05-24T02:39:31.695Z,51.32
2023-05-24T02:41:33.589Z,51.99
2023-05-24T02:43:35.496Z,51.82
2023-05-24T02:45:37.812Z,51.71
2023-05-24T02:47:39.661Z,52.11
2023-05-24T02:49:41.854Z,52.72
2023-05-24T02:51:43.661Z,53.20
2023-05-24T02:53:45.574Z,53.24
2023-05-24T02:55:47.471Z,53.14
2023-05-24T02:57:49.318Z,53.14
2023-05-24T02:59:51.227Z,53.97
2023-05-24T03:01:53.174Z,54.28
2023-05-24T03:03:55.093Z,54.36
2023-05-24T03:05:56.964Z,54.34
2023-05-24T03:07:58.805Z,54.47
2023-05-24T03:10:00.638Z,54.81
2023-05-24T03:12:02.448Z,54.89
2023-05-24T03:14:04.485Z,55.86
2023-05-24T03:16:06.914Z,55.22
2023-05-24T03:18:08.889Z,55.35
2023-05-24T03:20:11.819Z,55.97
2023-05-24T03:22:13.676Z,55.99
2023-05-24T03:24:15.512Z,55.70
2023-05-24T03:26:18.978Z,55.92
2023-05-24T03:28:22.462Z,56.21
2023-05-24T03:30:24.356Z,56.44
2023-05-24T03:32:26.198Z,56.28
2023-05-24T03:34:28.035Z,56.48
2023-05-24T03:36:29.919Z,56.48
2023-05-24T03:38:33.820Z,56.35
2023-05-24T03:40:36.824Z,56.62
2023-05-24T03:42:38.938Z,56.23
2023-05-24T03:44:41.147Z,56.51
2023-05-24T03:46:43.130Z,56.88
2023-05-24T03:48:45.096Z,57.04
2023-05-24T03:50:48.047Z,57.03
2023-05-24T03:52:50.731Z,56.92
2023-05-24T03:54:52.584Z,57.32
2023-05-24T03:56:54.468Z,57.17
2023-05-24T03:59:00.678Z,58.03
2023-05-24T04:01:02.684Z,57.61
2023-05-24T04:03:06.926Z,57.84
2023-05-24T04:05:10.429Z,57.84
2023-05-24T04:07:13.938Z,57.76
2023-05-24T04:09:15.860Z,57.81
2023-05-24T04:11:17.763Z,57.44
2023-05-24T04:13:19.648Z,57.86
2023-05-24T04:15:21.552Z,57.83
2023-05-24T04:17:24.976Z,58.01
2023-05-24T04:19:27.110Z,57.85
2023-05-24T04:21:29.289Z,57.82
2023-05-24T04:23:31.229Z,57.75
2023-05-24T04:25:33.724Z,57.90
2023-05-24T04:27:36.576Z,57.70
2023-05-24T04:29:42.303Z,57.69
2023-05-24T04:31:45.200Z,57.68
2023-05-24T04:33:48.036Z,57.64
2023-05-24T04:35:49.930Z,57.52
2023-05-24T04:37:52.606Z,57.36
2023-05-24T04:39:54.472Z,57.48
2023-05-24T04:41:58.135Z,57.43
2023-05-24T04:44:00.059Z,57.47
2023-05-24T04:46:02.109Z,57.58
2023-05-24T04:48:05.291Z,57.29
2023-05-24T04:50:08.252Z,57.01
2023-05-24T04:52:10.144Z,56.89
2023-05-24T04:54:12.053Z,57.18
2023-05-24T04:56:16.183Z,57.15
2023-05-24T04:58:18.180Z,56.88
2023-05-24T05:00:21.630Z,56.56
2023-05-24T05:02:23.528Z,56.19
2023-05-24T05:04:25.383Z,56.32
2023-05-24T05:06:27.245Z,56.51
2023-05-24T05:08:29.057Z,56.37
2023-05-24T05:10:31.130Z,56.34
2023-05-24T05:12:32.960Z,56.00
2023-05-24T05:14:34.807Z,56.05
2023-05-24T05:16:36.986Z,56.74
2023-05-24T05:18:39.161Z,56.79
2023-05-24T05:20:41.305Z,56.62
2023-05-24T05:22:47.884Z,56.58
2023-05-24T05:24:49.799Z,56.37
2023-05-24T05:26:51.740Z,56.27
2023-05-24T05:28:55.037Z,56.39
2023-05-24T05:30:57.084Z,56.39
2023-05-24T05:32:59.283Z,56.56
2023-05-24T05:35:01.385Z,56.45
2023-05-24T05:37:03.276Z,56.61
2023-05-24T05:39:05.183Z,56.55
2023-05-24T05:41:07.557Z,56.32
2023-05-24T05:43:09.557Z,56.42
2023-05-24T05:45:12.131Z,56.66
2023-05-24T05:47:13.989Z,57.07
2023-05-24T05:49:18.569Z,56.67
2023-05-24T05:51:20.527Z,56.74
2023-05-24T05:53:22.418Z,56.63
2023-05-24T05:55:25.217Z,56.63
2023-05-24T05:57:27.347Z,56.79
2023-05-24T05:59:29.251Z,56.93
2023-05-24T06:01:31.170Z,57.07
2023-05-24T06:03:33.146Z,57.06
2023-05-24T06:05:35.282Z,56.88
2023-05-24T06:07:38.840Z,56.76
2023-05-24T06:09:41.166Z,57.05
2023-05-24T06:11:45.168Z,56.78
2023-05-24T06:13:47.053Z,57.24
2023-05-24T06:15:50.257Z,56.91
2023-05-24T06:17:52.917Z,57.04
2023-05-24T06:19:56.087Z,56.97
2023-05-24T06:21:58.065Z,56.90
2023-05-24T06:24:02.673Z,56.73
2023-05-24T06:26:04.936Z,57.04
2023-05-24T06:28:06.923Z,56.80
2023-05-24T06:30:09.585Z,56.55
2023-05-24T06:32:11.889Z,57.19
2023-05-24T06:34:17.191Z,57.14
2023-05-24T06:36:19.103Z,56.88
2023-05-24T06:38:21.092Z,57.02
2023-05-24T06:40:23.135Z,56.54
2023-05-24T06:42:25.047Z,56.63
2023-05-24T06:44:34.037Z,56.67
2023-05-24T06:46:36.578Z,56.50
2023-05-24T06:48:38.606Z,56.46
2023-05-24T06:50:42.561Z,56.49
2023-05-24T06:52:45.041Z,56.13
2023-05-24T06:54:46.949Z,56.14
2023-05-24T06:56:48.924Z,56.39
2023-05-24T06:58:51.184Z,56.32
2023-05-24T07:00:53.430Z,56.48
2023-05-24T07:02:56.678Z,56.44
2023-05-24T07:04:59.132Z,56.56
2023-05-24T07:07:01.988Z,56.52
2023-05-24T07:09:04.732Z,56.64
2023-05-24T07:11:08.050Z,56.08
2023-05-24T07:13:10.217Z,56.05
2023-05-24T07:15:12.166Z,56.02
2023-05-24T07:17:14.262Z,56.21
2023-05-24T07:19:16.369Z,56.01
2023-05-24T07:21:18.444Z,55.93
2023-05-24T07:23:20.470Z,55.77
2023-05-24T07:25:23.234Z,55.75
2023-05-24T07:27:25.449Z,55.29
2023-05-24T07:29:27.788Z,55.47
2023-05-24T07:31:32.616Z,55.57
2023-05-24T07:33:38.041Z,55.78
2023-05-24T07:35:40.409Z,55.30
2023-05-24T07:37:42.455Z,55.07
2023-05-24T07:39:45.039Z,55.27
2023-05-24T07:41:47.111Z,55.15
2023-05-24T07:43:49.516Z,55.38
2023-05-24T07:45:51.742Z,55.16
2023-05-24T07:47:56.578Z,54.49
2023-05-24T07:49:58.876Z,55.42
2023-05-24T07:52:00.884Z,55.66
2023-05-24T07:54:02.850Z,55.63
2023-05-24T07:56:05.688Z,55.22
2023-05-24T07:58:08.256Z,55.10
2023-05-24T08:00:14.834Z,55.04
2023-05-24T08:02:17.338Z,54.68
2023-05-24T08:04:19.527Z,54.67
2023-05-24T08:06:22.319Z,54.59
2023-05-24T08:08:26.935Z,54.26
2023-05-24T08:10:29.488Z,54.51
2023-05-24T08:12:32.039Z,53.99
2023-05-24T08:14:34.911Z,54.00
2023-05-24T08:16:37.224Z,54.31
2023-05-24T08:18:39.609Z,54.38
2023-05-24T08:20:42.415Z,54.04
2023-05-24T08:22:44.811Z,53.75
2023-05-24T08:24:47.788Z,53.49
2023-05-24T08:26:52.407Z,53.75
2023-05-24T08:28:55.382Z,52.61
2023-05-24T08:30:59.055Z,52.63
2023-05-24T08:33:01.652Z,52.66
2023-05-24T08:35:19.543Z,52.57
2023-05-24T08:37:23.956Z,52.60
2023-05-24T08:39:26.506Z,52.44
2023-05-24T08:41:29.126Z,52.26
2023-05-24T08:43:32.965Z,51.93
2023-05-24T08:45:37.808Z,51.88
2023-05-24T08:47:41.430Z,52.12
2023-05-24T08:49:44.057Z,52.03
2023-05-24T08:51:46.813Z,52.09
2023-05-24T08:53:51.216Z,52.08
2023-05-24T08:55:56.141Z,51.98
2023-05-24T08:57:58.939Z,51.79
2023-05-24T09:00:01.485Z,51.14
2023-05-24T09:02:05.307Z,51.09
2023-05-24T09:04:09.345Z,51.38
2023-05-24T09:06:13.473Z,50.25
2023-05-24T09:08:18.734Z,50.31
2023-05-24T09:10:22.766Z,50.44
2023-05-24T09:12:36.722Z,50.15
2023-05-24T09:14:46.700Z,50.34
2023-05-24T09:16:49.859Z,49.81
2023-05-24T09:18:52.102Z,50.21
2023-05-24T09:20:54.731Z,49.67
2023-05-24T09:22:58.249Z,49.33
2023-05-24T09:25:02.400Z,48.86
2023-05-24T09:27:07.617Z,48.47
2023-05-24T09:29:09.745Z,48.24
2023-05-24T09:31:12.650Z,47.63
2023-05-24T09:33:15.218Z,46.77
2023-05-24T09:35:17.444Z,45.68
2023-05-24T09:37:25.705Z,46.14
2023-05-24T09:39:29.833Z,46.20
2023-05-24T09:41:33.132Z,45.48
2023-05-24T09:43:47.447Z,45.41
2023-05-24T09:45:49.641Z,45.16
2023-05-24T09:47:53.410Z,44.94
2023-05-24T09:49:55.606Z,44.40
2023-05-24T09:51:58.554Z,43.41
2023-05-24T09:54:03.316Z,43.18
2023-05-24T09:56:08.979Z,42.81
2023-05-24T09:58:13.386Z,42.44
2023-05-24T10:00:22.752Z,42.33
2023-05-24T10:02:27.573Z,42.23
2023-05-24T10:04:34.951Z,41.98
2023-05-24T10:06:38.778Z,42.07
2023-05-24T10:08:41.125Z,42.38
2023-05-24T10:10:44.594Z,41.69
2023-05-24T10:12:48.010Z,41.89
2023-05-24T10:14:52.587Z,41.13
2023-05-24T10:16:54.995Z,40.75
2023-05-24T10:18:57.490Z,40.53
2023-05-24T10:21:02.065Z,40.73
2023-05-24T10:23:08.269Z,40.62
2023-05-24T10:25:18.990Z,40.49
2023-05-24T10:27:25.943Z,40.30
2023-05-24T10:29:53.291Z,40.15
2023-05-24T10:31:56.415Z,39.72
2023-05-24T10:34:07.026Z,39.44
2023-05-24T10:36:14.677Z,38.87
2023-05-24T10:38:17.596Z,39.41
2023-05-24T10:40:25.613Z,39.61
2023-05-24T10:42:31.593Z,39.05
2023-05-24T10:44:34.198Z,38.91
2023-05-24T10:46:36.816Z,38.72
2023-05-24T10:48:41.008Z,38.90
2023-05-24T10:50:44.965Z,38.44
2023-05-24T10:52:50.167Z,38.38
2023-05-24T10:55:05.393Z,37.81
2023-05-24T10:57:08.503Z,37.89
2023-05-24T10:59:24.091Z,38.02
2023-05-24T11:01:27.882Z,38.07
2023-05-24T11:03:34.134Z,37.61
2023-05-24T11:05:50.173Z,37.21
2023-05-24T11:07:59.968Z,36.38
2023-05-24T11:10:09.928Z,36.51
2023-05-24T11:12:17.059Z,37.08
2023-05-24T11:14:21.012Z,37.32
2023-05-24T11:16:40.825Z,37.10
2023-05-24T11:18:56.295Z,37.10
2023-05-24T11:21:03.894Z,37.18
2023-05-24T11:23:07.844Z,37.37
2023-05-24T11:25:10.982Z,37.08
2023-05-24T11:27:14.762Z,37.42
2023-05-24T11:29:19.511Z,37.14
2023-05-24T11:31:28.227Z,37.03
2023-05-24T11:33:30.779Z,37.30
2023-05-24T11:35:33.070Z,37.66
2023-05-24T11:37:45.643Z,37.51
2023-05-24T11:39:54.644Z,37.57
2023-05-24T11:41:57.127Z,37.63
2023-05-24T11:43:59.287Z,37.72
2023-05-24T11:46:01.685Z,37.26
2023-05-24T11:48:07.268Z,36.77
2023-05-24T11:50:09.476Z,36.86
2023-05-24T11:52:11.360Z,36.77
2023-05-24T11:54:21.798Z,36.45
2023-05-24T11:56:27.436Z,36.04
2023-05-24T11:58:47.072Z,35.82
2023-05-24T12:00:50.260Z,36.23
2023-05-24T12:02:56.360Z,35.46
2023-05-24T12:05:19.644Z,35.65
2023-05-24T12:07:24.292Z,35.55
2023-05-24T12:09:28.735Z,35.69
2023-05-24T12:11:33.101Z,36.07
2023-05-24T12:13:37.013Z,36.06
2023-05-24T12:16:15.468Z,35.86
2023-05-24T12:18:21.997Z,35.84
2023-05-24T12:20:25.707Z,35.86
2023-05-24T12:22:32.575Z,35.81
2023-05-24T12:24:38.402Z,35.36
2023-05-24T12:26:43.457Z,34.80
2023-05-24T12:28:51.604Z,34.61
2023-05-24T12:31:17.669Z,34.83
2023-05-24T12:33:40.888Z,34.17
2023-05-24T12:35:43.509Z,34.08
2023-05-24T12:37:46.402Z,34.06
2023-05-24T12:40:01.470Z,33.59
2023-05-24T12:42:23.063Z,33.61
2023-05-24T12:44:37.829Z,33.46
2023-05-24T12:47:04.205Z,33.77
2023-05-24T12:51:38.264Z,33.86
2023-05-24T12:56:06.489Z,33.48
2023-05-24T12:58:17.446Z,33.56
2023-05-24T13:00:39.612Z,33.03
2023-05-24T13:02:46.501Z,33.30
2023-05-24T13:05:07.723Z,33.25
2023-05-24T13:07:10.272Z,33.38
2023-05-24T13:09:14.270Z,33.69
2023-05-24T13:11:25.367Z,33.59
2023-05-24T13:13:29.573Z,34.03
2023-05-24T13:15:43.578Z,34.09
2023-05-24T13:17:47.418Z,34.35
2023-05-24T13:19:49.946Z,34.00
2023-05-24T13:21:53.386Z,33.64
2023-05-24T13:24:10.337Z,33.81
2023-05-24T13:34:42.504Z,33.25
2023-05-24T13:37:06.770Z,32.85
2023-05-24T13:39:38.973Z,32.73
2023-05-24T13:44:28.848Z,32.31
2023-05-24T13:49:03.744Z,32.46
2023-05-24T13:51:05.901Z,32.62
2023-05-24T13:53:08.243Z,32.25
2023-05-24T13:55:10.725Z,32.37
2023-05-24T13:57:12.867Z,32.48
2023-05-24T13:59:15.844Z,32.11
2023-05-24T14:01:17.910Z,32.62
2023-05-24T14:03:20.077Z,32.68
2023-05-24T14:07:28.428Z,32.16
2023-05-24T14:09:30.392Z,32.33
2023-05-24T14:11:32.935Z,31.76
2023-05-24T14:15:40.268Z,31.34
2023-05-24T14:17:42.438Z,31.52
2023-05-24T14:19:44.452Z,31.99
2023-05-24T14:21:46.455Z,31.00
2023-05-24T14:23:48.744Z,30.56
2023-05-24T14:25:52.526Z,30.56
2023-05-24T14:27:58.057Z,30.58
2023-05-24T14:30:00.321Z,30.42
2023-05-24T14:32:02.529Z,30.85
2023-05-24T14:34:04.788Z,30.56
2023-05-24T14:36:07.314Z,30.48
2023-05-24T14:38:11.588Z,30.59
2023-05-24T14:40:14.137Z,30.45
2023-05-24T14:42:16.617Z,29.88
2023-05-24T14:44:19.257Z,30.35
2023-05-24T14:46:21.352Z,30.06
2023-05-24T14:48:23.667Z,31.14
2023-05-24T14:50:25.508Z,29.18
2023-05-24T14:52:32.846Z,29.94
2023-05-24T14:54:34.722Z,29.03
2023-05-24T14:56:36.740Z,29.60
2023-05-24T14:58:38.740Z,29.31
2023-05-24T15:00:42.631Z,28.51
2023-05-24T15:02:45.102Z,28.49
2023-05-24T15:04:47.220Z,28.86
2023-05-24T15:06:49.286Z,28.82
2023-05-24T15:08:52.312Z,29.04
2023-05-24T15:10:55.689Z,28.19
2023-05-24T15:12:58.872Z,28.58
2023-05-24T15:15:02.126Z,28.35
2023-05-24T15:17:04.616Z,29.00
2023-05-24T15:19:08.432Z,28.79
2023-05-24T15:21:10.436Z,28.14
2023-05-24T15:23:12.567Z,29.02
2023-05-24T15:25:15.025Z,28.51
2023-05-24T15:27:17.741Z,28.04
2023-05-24T15:29:20.615Z,27.53
2023-05-24T15:31:22.847Z,27.93
2023-05-24T15:33:26.776Z,28.25
2023-05-24T15:35:28.825Z,27.43
2023-05-24T15:37:30.732Z,28.42
2023-05-24T15:39:33.788Z,26.65
2023-05-24T15:41:37.869Z,26.44
2023-05-24T15:43:40.105Z,26.81
2023-05-24T15:45:44.038Z,26.28
2023-05-24T15:47:46.236Z,26.34
2023-05-24T15:49:48.118Z,25.68
2023-05-24T15:52:03.591Z,25.48
2023-05-24T15:54:06.964Z,26.46
2023-05-24T15:56:10.144Z,26.13
2023-05-24T15:58:13.703Z,26.40
2023-05-24T16:00:16.280Z,27.04
2023-05-24T16:02:21.137Z,27.22
2023-05-24T16:04:23.477Z,26.66
2023-05-24T16:06:25.634Z,27.15
2023-05-24T16:08:28.651Z,27.92
2023-05-24T16:10:31.138Z,28.13
2023-05-24T16:12:33.208Z,28.68
2023-05-24T16:14:37.666Z,28.23
2023-05-24T16:16:39.772Z,28.93
2023-05-24T16:18:42.286Z,29.00
2023-05-24T16:20:46.379Z,29.62
2023-05-24T16:22:49.948Z,29.36
2023-05-24T16:24:53.705Z,29.01
2023-05-24T16:26:57.528Z,29.37
2023-05-24T16:29:00.008Z,29.02
2023-05-24T16:31:04.330Z,28.80
2023-05-24T16:33:07.098Z,29.52
2023-05-24T16:35:10.140Z,29.50
2023-05-24T16:37:13.369Z,30.37
2023-05-24T16:39:15.517Z,30.86
2023-05-24T16:41:17.658Z,31.32
2023-05-24T16:43:20.646Z,31.05
2023-05-24T16:45:23.317Z,31.30
2023-05-24T16:47:28.782Z,31.10
2023-05-24T16:49:32.148Z,31.54
2023-05-24T16:51:34.283Z,31.22
2023-05-24T16:53:36.408Z,31.58
2023-05-24T16:55:39.081Z,31.61
2023-05-24T16:57:42.092Z,32.10
2023-05-24T16:59:45.598Z,32.25
2023-05-24T17:01:51.121Z,32.52
2023-05-24T17:03:54.061Z,32.52
2023-05-24T17:06:01.920Z,33.08
2023-05-24T17:08:06.962Z,32.42
2023-05-24T17:10:09.715Z,32.45
2023-05-24T17:12:11.999Z,32.56
2023-05-24T17:14:14.823Z,32.34
2023-05-24T17:16:19.774Z,31.82
2023-05-24T17:18:30.785Z,31.96
2023-05-24T17:20:33.361Z,31.70
2023-05-24T17:22:35.577Z,31.67
2023-05-24T17:24:37.724Z,32.10
2023-05-24T17:26:41.684Z,32.28
2023-05-24T17:28:45.060Z,32.49
2023-05-24T17:30:47.831Z,32.72
2023-05-24T17:32:52.561Z,32.88
2023-05-24T17:34:54.894Z,32.68
2023-05-24T17:36:57.183Z,32.60
2023-05-24T17:38:59.666Z,32.28
2023-05-24T17:41:01.818Z,31.74
2023-05-24T17:43:04.642Z,31.69
2023-05-24T17:45:08.446Z,31.68
2023-05-24T17:47:11.167Z,31.47
2023-05-24T17:49:16.290Z,31.61
2023-05-24T17:51:20.382Z,31.73
2023-05-24T17:53:31.375Z,31.37
2023-05-24T17:55:35.920Z,32.10
2023-05-24T17:57:38.721Z,32.11
2023-05-24T17:59:41.196Z,32.15
2023-05-24T18:01:44.134Z,32.36
2023-05-24T18:03:46.705Z,32.20
2023-05-24T18:05:48.874Z,32.64
2023-05-24T18:07:50.891Z,32.55
2023-05-24T18:09:52.887Z,32.99
2023-05-24T18:11:55.055Z,32.97
2023-05-24T18:13:57.617Z,32.99
2023-05-24T18:16:00.064Z,33.20
2023-05-24T18:18:02.752Z,33.11
2023-05-24T18:20:05.981Z,33.18
2023-05-24T18:22:08.289Z,33.44
2023-05-24T18:24:10.677Z,33.50
2023-05-24T18:26:12.833Z,33.46
2023-05-24T18:28:15.250Z,33.94
2023-05-24T18:30:17.580Z,33.99
2023-05-24T18:32:19.680Z,34.39
2023-05-24T18:34:21.727Z,34.34
2023-05-24T18:36:23.730Z,34.62
2023-05-24T18:38:25.691Z,35.09
2023-05-24T18:40:27.841Z,35.12
2023-05-24T18:42:29.832Z,36.15
2023-05-24T18:44:31.873Z,36.44
2023-05-24T18:46:33.926Z,36.69
2023-05-24T18:48:36.250Z,36.53
2023-05-24T18:50:38.387Z,36.44
2023-05-24T18:52:40.355Z,36.35
2023-05-24T18:54:42.266Z,36.49
2023-05-24T18:56:45.697Z,37.14
2023-05-24T18:58:49.856Z,37.34
2023-05-24T19:00:52.246Z,37.72
2023-05-24T19:02:55.677Z,37.59
2023-05-24T19:04:58.279Z,37.75
2023-05-24T19:07:00.530Z,37.64
2023-05-24T19:09:04.814Z,37.59
2023-05-24T19:11:06.625Z,37.82
2023-05-24T19:13:08.574Z,38.05
2023-05-24T19:15:11.048Z,38.69
2023-05-24T19:17:12.889Z,39.00
2023-05-24T19:19:14.736Z,38.97
2023-05-24T19:21:16.678Z,38.85
2023-05-24T19:23:18.518Z,39.49
2023-05-24T19:25:21.498Z,39.50
2023-05-24T19:27:24.676Z,39.53
2023-05-24T19:29:26.754Z,39.59
2023-05-24T19:31:29.635Z,39.69
2023-05-24T19:33:31.518Z,39.97
2023-05-24T19:35:34.759Z,39.88
2023-05-24T19:37:36.566Z,40.23
2023-05-24T19:39:38.775Z,40.08
2023-05-24T19:41:41.131Z,39.96
2023-05-24T19:43:43.438Z,40.08
2023-05-24T19:45:45.670Z,40.32
2023-05-24T19:47:47.938Z,40.74
2023-05-24T19:49:49.832Z,40.72
2023-05-24T19:51:52.353Z,40.41
2023-05-24T19:53:57.553Z,40.45
2023-05-24T19:55:59.486Z,40.39
2023-05-24T19:58:01.357Z,40.41
2023-05-24T20:00:04.790Z,40.52
2023-05-24T20:02:07.816Z,39.94
2023-05-24T20:04:12.889Z,40.33
2023-05-24T20:06:18.532Z,40.71
2023-05-24T20:08:21.675Z,40.94
2023-05-24T20:10:23.934Z,41.13
2023-05-24T20:12:26.073Z,41.35
2023-05-24T20:14:31.614Z,42.15
2023-05-24T20:16:33.846Z,42.53
2023-05-24T20:18:35.818Z,43.50
2023-05-24T20:20:37.802Z,44.42
2023-05-24T20:22:39.775Z,44.72
2023-05-24T20:24:41.758Z,44.94
2023-05-24T20:26:43.709Z,45.32
2023-05-24T20:28:46.577Z,46.10
2023-05-24T20:30:48.612Z,47.33
2023-05-24T20:32:50.839Z,48.44
2023-05-24T20:34:52.709Z,49.75
2023-05-24T20:36:54.626Z,49.65
2023-05-24T20:38:56.634Z,50.34
2023-05-24T20:40:58.573Z,50.54
2023-05-24T20:43:00.508Z,50.86
2023-05-24T20:45:03.785Z,50.61
2023-05-24T20:47:06.132Z,50.88
2023-05-24T20:49:08.044Z,50.47
2023-05-24T20:51:10.213Z,50.27
2023-05-24T20:53:12.152Z,50.93
2023-05-24T20:55:16.349Z,51.12
2023-05-24T20:57:20.781Z,50.85
2023-05-24T20:59:22.715Z,50.89
2023-05-24T21:01:24.712Z,51.01
2023-05-24T21:03:27.099Z,50.63
2023-05-24T21:05:29.055Z,50.96
2023-05-24T21:07:31.231Z,50.82
2023-05-24T21:09:33.145Z,50.71
2023-05-24T21:11:35.065Z,50.61
2023-05-24T21:13:39.491Z,50.48
2023-05-24T21:15:44.644Z,51.12
2023-05-24T21:17:47.383Z,51.25
2023-05-24T21:19:49.371Z,51.61
2023-05-24T21:21:51.297Z,51.32
2023-05-24T21:23:53.231Z,51.42
2023-05-24T21:25:55.090Z,52.25
2023-05-24T21:27:57.597Z,52.29
2023-05-24T21:29:59.451Z,52.42
2023-05-24T21:32:01.299Z,51.91
2023-05-24T21:34:03.202Z,53.05
2023-05-24T21:36:05.186Z,52.19
2023-05-24T21:38:07.102Z,52.39
2023-05-24T21:40:10.055Z,53.10
2023-05-24T21:42:11.961Z,52.68
2023-05-24T21:44:13.859Z,52.54
2023-05-24T21:46:16.159Z,52.65
2023-05-24T21:48:18.342Z,52.40
2023-05-24T21:50:20.154Z,52.53
2023-05-24T21:52:23.090Z,51.95
2023-05-24T21:54:24.953Z,51.70
2023-05-24T21:56:27.231Z,51.67
2023-05-24T21:58:29.406Z,51.63
2023-05-24T22:00:31.908Z,51.83
2023-05-24T22:02:34.672Z,52.13
2023-05-24T22:04:36.624Z,51.63
2023-05-24T22:06:41.481Z,51.60
2023-05-24T22:08:43.300Z,51.82
2023-05-24T22:10:45.176Z,51.87
2023-05-24T22:12:48.315Z,51.83
2023-05-24T22:14:50.135Z,51.88
2023-05-24T22:16:52.024Z,52.14
2023-05-24T22:18:55.736Z,52.11
2023-05-24T22:20:58.607Z,52.01
2023-05-24T22:23:00.589Z,51.68
2023-05-24T22:25:02.614Z,51.62
2023-05-24T22:27:05.116Z,51.92
2023-05-24T22:29:06.970Z,52.17
2023-05-24T22:31:08.774Z,51.70
2023-05-24T22:33:10.555Z,51.93
2023-05-24T22:35:12.468Z,51.42
2023-05-24T22:37:16.988Z,51.22
2023-05-24T22:39:19.223Z,51.56
2023-05-24T22:41:22.788Z,51.80
2023-05-24T22:43:24.584Z,51.15
2023-05-24T22:45:26.473Z,51.60
2023-05-24T22:47:28.915Z,50.92
2023-05-24T22:49:34.297Z,50.76
2023-05-24T22:51:37.788Z,50.78
2023-05-24T22:53:39.787Z,50.21
2023-05-24T22:55:41.889Z,50.11
2023-05-24T22:57:44.103Z,50.05
2023-05-24T22:59:45.967Z,49.74
2023-05-24T23:01:47.977Z,49.72
2023-05-24T23:03:49.879Z,49.83
2023-05-24T23:05:53.787Z,49.42
2023-05-24T23:07:55.656Z,49.29
2023-05-24T23:09:59.869Z,49.39
2023-05-24T23:12:07.599Z,49.27
2023-05-24T23:14:11.385Z,49.57
2023-05-24T23:16:18.091Z,49.78
2023-05-24T23:18:22.434Z,50.08
2023-05-24T23:20:24.680Z,49.94
2023-05-24T23:22:26.639Z,49.91
2023-05-24T23:24:28.457Z,49.83
2023-05-24T23:26:30.238Z,49.51
2023-05-24T23:28:32.811Z,49.95
2023-05-24T23:30:34.690Z,49.57
2023-05-24T23:32:36.541Z,49.35
2023-05-24T23:34:38.458Z,49.26
2023-05-24T23:36:40.243Z,48.83
2023-05-24T23:38:42.072Z,48.59
2023-05-24T23:40:43.951Z,48.95
2023-05-24T23:42:45.763Z,49.34
2023-05-24T23:44:50.734Z,49.41
2023-05-24T23:46:53.227Z,49.61
2023-05-24T23:48:55.048Z,49.14
2023-05-24T23:50:56.793Z,49.40
2023-05-24T23:52:58.562Z,49.60
2023-05-24T23:55:00.375Z,49.67
2023-05-24T23:57:07.697Z,49.65
2023-05-24T23:59:09.540Z,49.95
